Decoded Metar for KVNC ( in ) (IATA:) | Meteo·Mobile Aviation Weather
aviador You're here:

KVNC Decoded Metar

in
Report Time2018-10-20 20:55:00
UTC Time2018-10-20 21:13:07
Flight Rules vfr VFR
Wind250° at 07 kt
W.Decomp.*RWY 23: 6.6 kt HW 2.4 kt RCW
RWY 31: 3.5 kt HW 6.1 kt LCW
W.Rank250° ranks 20
Current wind is above 250° avg. (6.8)
Visibility9999 m
Phenomena:N/A
Clouds:N/A
Expected CloudBase > 2,400 ft AGL from Temp-Dew spread
CeilingNone
Temp30°C
Dew Point24°C (70% RH)
Heat Index35.0°C
QNH1015 hPa
Raw Report
METAR KVNC 202055Z AUTO 25007KT 10SM CLR 30/24 A2998 RMK AO2=

Extra information for KVNC:More info

Social comments